Time;durP1;ratioP1;P1;durP2;ratioP2;P2;SDS_P1;SDS_P2;PMS_P1;PMS_P2;Temp;Humidity;BMP_temperature;BMP_pressure;BME280_temperature;BME280_humidity;BME280_pressure;Samples;Min_cycle;Max_cycle;Signal;HPM_P1;HPM_P2
2023/10/28 00:00:38;;;;;;;3.17;1.73;;;11.40;85.70;;;;;;5063857;28;20070;-62
2023/10/28 00:03:05;;;;;;;2.85;2.15;;;11.40;85.70;;;;;;5054408;28;20035;-63
2023/10/28 00:05:31;;;;;;;2.08;1.73;;;11.40;85.70;;;;;;5065640;28;20032;-62
2023/10/28 00:07:57;;;;;;;1.38;1.17;;;11.40;85.60;;;;;;5065338;28;20047;-62
2023/10/28 00:10:23;;;;;;;1.52;1.25;;;11.40;85.60;;;;;;5070986;28;20032;-62
2023/10/28 00:12:50;;;;;;;7.43;2.30;;;11.40;85.60;;;;;;5071869;28;20449;-62
2023/10/28 00:15:18;;;;;;;2.00;1.15;;;11.50;85.70;;;;;;5070837;28;20082;-62
2023/10/28 00:17:47;;;;;;;2.78;1.90;;;11.40;85.60;;;;;;5071503;28;20458;-62
2023/10/28 00:20:19;;;;;;;6.95;1.55;;;11.50;85.70;;;;;;5067787;28;20028;-62
2023/10/28 00:22:46;;;;;;;3.58;2.17;;;11.40;85.60;;;;;;5059145;28;20033;-62
2023/10/28 00:25:13;;;;;;;1.92;1.38;;;11.40;85.50;;;;;;5072766;28;20027;-62
2023/10/28 00:27:40;;;;;;;2.38;1.90;;;11.40;85.60;;;;;;5058919;28;20463;-63
2023/10/28 00:30:10;;;;;;;1.90;1.52;;;11.40;85.70;;;;;;5069746;28;20025;-63
2023/10/28 00:32:39;;;;;;;3.63;2.03;;;11.40;85.70;;;;;;5064820;28;20120;-62
2023/10/28 00:35:11;;;;;;;2.50;1.67;;;11.40;85.90;;;;;;5086430;28;20040;-63
2023/10/28 00:37:37;;;;;;;3.72;1.38;;;11.40;85.80;;;;;;5068068;28;20056;-63
2023/10/28 00:40:06;;;;;;;3.35;1.85;;;11.40;85.90;;;;;;5071709;28;20035;-63
2023/10/28 00:42:36;;;;;;;2.20;1.38;;;11.40;85.90;;;;;;5070912;28;20024;-63
2023/10/28 00:45:06;;;;;;;2.83;1.85;;;11.40;85.80;;;;;;5069906;28;20033;-62
2023/10/28 00:47:33;;;;;;;1.75;1.63;;;11.40;85.90;;;;;;5068442;28;20034;-62
2023/10/28 00:50:00;;;;;;;1.75;1.52;;;11.40;86.00;;;;;;5068321;28;20506;-62
2023/10/28 00:52:27;;;;;;;2.65;1.60;;;11.40;86.00;;;;;;5067430;28;20487;-63
2023/10/28 00:54:54;;;;;;;1.85;1.50;;;11.40;86.00;;;;;;5065766;28;20032;-63
2023/10/28 00:57:21;;;;;;;2.13;1.08;;;11.40;86.10;;;;;;5070593;28;20036;-66
2023/10/28 00:59:47;;;;;;;4.25;1.90;;;11.50;86.20;;;;;;5069925;28;20107;-66
2023/10/28 01:02:13;;;;;;;2.53;1.42;;;11.50;86.20;;;;;;5068209;28;20459;-66
2023/10/28 01:04:39;;;;;;;6.43;1.77;;;11.50;86.30;;;;;;5070175;28;20029;-66
2023/10/28 01:07:05;;;;;;;1.85;1.75;;;11.60;86.30;;;;;;5062471;28;20028;-66
2023/10/28 01:09:31;;;;;;;2.03;1.38;;;11.60;86.30;;;;;;5066675;28;20094;-65
2023/10/28 01:11:57;;;;;;;2.60;1.75;;;11.60;86.30;;;;;;5061683;28;20037;-62
2023/10/28 01:14:23;;;;;;;2.22;1.58;;;11.60;86.30;;;;;;5077317;28;20040;-62
2023/10/28 01:16:51;;;;;;;2.03;1.55;;;11.70;86.30;;;;;;5067224;28;20041;-63
2023/10/28 01:19:17;;;;;;;2.22;1.70;;;11.70;86.50;;;;;;5072888;28;20430;-62
2023/10/28 01:21:42;;;;;;;1.35;1.25;;;11.70;86.30;;;;;;5071815;28;20024;-62
2023/10/28 01:24:08;;;;;;;1.90;1.25;;;11.80;86.30;;;;;;5071678;28;20116;-63
2023/10/28 01:26:36;;;;;;;1.25;0.95;;;11.90;86.30;;;;;;5066197;28;20036;-63
2023/10/28 01:29:02;;;;;;;3.78;1.25;;;11.90;86.30;;;;;;5074676;28;20096;-63
2023/10/28 01:31:28;;;;;;;2.28;1.52;;;11.90;86.30;;;;;;5070472;28;20037;-63
2023/10/28 01:33:56;;;;;;;0.88;0.85;;;12.00;86.30;;;;;;5071508;28;20026;-63
2023/10/28 01:36:23;;;;;;;2.20;1.52;;;12.00;86.30;;;;;;5069000;28;20032;-63
2023/10/28 01:38:49;;;;;;;3.95;1.52;;;12.00;86.60;;;;;;5063179;28;20032;-62
2023/10/28 01:41:14;;;;;;;2.42;1.30;;;12.10;86.60;;;;;;5082537;28;20318;-63
2023/10/28 01:43:42;;;;;;;1.27;1.02;;;12.10;86.60;;;;;;5067657;28;20021;-62
2023/10/28 01:46:08;;;;;;;1.30;1.10;;;12.20;86.60;;;;;;5066520;28;20032;-62
2023/10/28 01:48:33;;;;;;;3.47;2.13;;;12.20;87.30;;;;;;5067111;28;20035;-65
2023/10/28 01:50:59;;;;;;;1.27;1.10;;;12.20;86.80;;;;;;5062412;28;20040;-63
2023/10/28 01:53:25;;;;;;;1.13;1.02;;;12.20;86.80;;;;;;5065841;28;20047;-65
2023/10/28 01:55:50;;;;;;;1.75;1.10;;;12.30;86.90;;;;;;5066983;28;20060;-62
2023/10/28 01:58:17;;;;;;;1.15;1.02;;;12.30;86.80;;;;;;5067983;28;20107;-63
2023/10/28 02:00:43;;;;;;;3.03;1.60;;;12.30;87.10;;;;;;5066152;28;20391;-63
2023/10/28 02:03:11;;;;;;;3.05;1.27;;;12.30;87.40;;;;;;5073655;28;20070;-63
2023/10/28 02:05:38;;;;;;;3.03;1.30;;;12.30;87.40;;;;;;5069374;28;20039;-63
2023/10/28 02:08:04;;;;;;;5.65;1.83;;;12.40;87.40;;;;;;5076611;28;20583;-63
2023/10/28 02:10:30;;;;;;;1.63;1.20;;;12.40;87.60;;;;;;5072356;28;20056;-63
2023/10/28 02:12:56;;;;;;;1.83;1.15;;;12.40;87.80;;;;;;5072990;28;20506;-62
2023/10/28 02:15:21;;;;;;;2.75;1.65;;;12.40;87.70;;;;;;5071164;28;20049;-62
2023/10/28 02:17:48;;;;;;;2.50;0.80;;;12.40;87.70;;;;;;5065078;28;20457;-63
2023/10/28 02:20:13;;;;;;;5.05;1.33;;;12.40;87.70;;;;;;5070997;28;20476;-63
2023/10/28 02:22:40;;;;;;;1.05;0.95;;;12.50;87.80;;;;;;5077885;28;20085;-62
2023/10/28 02:25:07;;;;;;;0.63;0.60;;;12.50;87.50;;;;;;5075252;28;20021;-62
2023/10/28 02:27:34;;;;;;;1.58;1.10;;;12.50;87.50;;;;;;5080351;28;20036;-63
2023/10/28 02:29:59;;;;;;;1.67;1.20;;;12.50;87.50;;;;;;5079092;28;20035;-63
2023/10/28 02:32:25;;;;;;;0.93;0.90;;;12.50;87.60;;;;;;5082089;28;20047;-62
2023/10/28 02:34:51;;;;;;;1.15;1.00;;;12.50;87.60;;;;;;5076111;28;20037;-63
2023/10/28 02:37:16;;;;;;;2.80;1.23;;;12.50;87.70;;;;;;5079740;28;20487;-62
2023/10/28 02:39:42;;;;;;;2.67;1.17;;;12.50;87.80;;;;;;5074253;28;20028;-61
2023/10/28 02:42:08;;;;;;;1.73;1.38;;;12.50;87.70;;;;;;5078069;28;20064;-62
2023/10/28 02:44:34;;;;;;;1.52;0.95;;;12.50;87.70;;;;;;5072493;28;20025;-65
2023/10/28 02:47:00;;;;;;;3.88;1.10;;;12.50;87.60;;;;;;5069092;28;20031;-62
2023/10/28 02:49:27;;;;;;;1.45;0.73;;;12.50;87.70;;;;;;5073719;28;20029;-62
2023/10/28 02:51:53;;;;;;;0.80;0.80;;;12.50;87.70;;;;;;5066199;28;20059;-62
2023/10/28 02:54:18;;;;;;;1.33;1.08;;;12.50;87.70;;;;;;5070855;28;20052;-62
2023/10/28 02:56:45;;;;;;;2.78;1.10;;;12.50;87.70;;;;;;5073163;28;20043;-61
2023/10/28 02:59:11;;;;;;;1.77;1.17;;;12.50;87.70;;;;;;5069545;28;20031;-62
2023/10/28 03:01:39;;;;;;;3.90;1.45;;;12.50;87.70;;;;;;5075951;28;20470;-62
2023/10/28 03:04:05;;;;;;;1.80;1.10;;;12.50;87.90;;;;;;5078725;28;20505;-61
2023/10/28 03:06:32;;;;;;;3.03;0.98;;;12.50;87.90;;;;;;5077698;28;20475;-62
2023/10/28 03:08:58;;;;;;;3.55;0.98;;;12.50;87.90;;;;;;5077142;28;20429;-62
2023/10/28 03:11:24;;;;;;;0.90;0.70;;;12.50;87.90;;;;;;5075861;28;20045;-62
2023/10/28 03:13:49;;;;;;;8.38;1.13;;;12.50;88.00;;;;;;5074472;28;20045;-62
2023/10/28 03:16:15;;;;;;;3.28;1.75;;;12.50;88.00;;;;;;5072952;28;20055;-61
2023/10/28 03:18:41;;;;;;;2.42;1.02;;;12.40;88.00;;;;;;5072487;28;20193;-62
2023/10/28 03:21:06;;;;;;;1.13;1.02;;;12.40;88.10;;;;;;5070945;28;20056;-62
2023/10/28 03:23:32;;;;;;;1.02;0.77;;;12.40;88.10;;;;;;5068776;28;20095;-62
2023/10/28 03:25:58;;;;;;;2.28;1.23;;;12.50;88.10;;;;;;5073595;28;20028;-62
2023/10/28 03:28:24;;;;;;;4.63;1.30;;;12.50;88.10;;;;;;5073638;28;20041;-62
2023/10/28 03:30:50;;;;;;;2.30;0.60;;;12.50;88.70;;;;;;5072659;28;20032;-62
2023/10/28 03:33:15;;;;;;;0.77;0.70;;;12.50;88.10;;;;;;5063989;28;20115;-61
2023/10/28 03:35:41;;;;;;;0.63;0.50;;;12.50;88.00;;;;;;5067328;28;20036;-62
2023/10/28 03:38:07;;;;;;;2.60;0.75;;;12.60;88.00;;;;;;5067771;28;20027;-62
2023/10/28 03:40:33;;;;;;;5.50;0.80;;;12.60;88.00;;;;;;5068197;28;20039;-62
2023/10/28 03:42:58;;;;;;;2.47;1.02;;;12.60;88.00;;;;;;5066513;28;20056;-62
2023/10/28 03:45:24;;;;;;;1.15;1.05;;;12.50;88.00;;;;;;5078014;28;20036;-62
2023/10/28 03:47:50;;;;;;;2.47;0.80;;;12.60;88.10;;;;;;5075259;28;20099;-65
2023/10/28 03:50:16;;;;;;;1.80;1.20;;;12.60;88.00;;;;;;5067815;28;20021;-65
2023/10/28 03:52:41;;;;;;;2.85;1.15;;;12.60;88.00;;;;;;5070617;28;20028;-65
2023/10/28 03:55:07;;;;;;;2.15;0.65;;;12.60;88.10;;;;;;5084042;28;20141;-65
2023/10/28 03:57:33;;;;;;;1.00;0.80;;;12.60;88.10;;;;;;5072708;28;20045;-65
2023/10/28 03:59:58;;;;;;;1.02;0.70;;;12.50;88.10;;;;;;5071272;28;20403;-66
2023/10/28 04:02:25;;;;;;;0.32;0.32;;;12.50;88.10;;;;;;5069392;28;20399;-65
2023/10/28 04:04:52;;;;;;;0.93;0.60;;;12.60;88.20;;;;;;5076168;28;20054;-65
2023/10/28 04:07:17;;;;;;;1.13;0.98;;;12.60;88.10;;;;;;5063232;28;20037;-65
2023/10/28 04:09:43;;;;;;;0.63;0.35;;;12.60;88.00;;;;;;5065280;28;20174;-65
2023/10/28 04:12:09;;;;;;;0.98;0.43;;;12.60;88.00;;;;;;5070215;28;20035;-62
2023/10/28 04:14:35;;;;;;;0.30;0.30;;;12.60;88.00;;;;;;5062260;28;20028;-62
2023/10/28 04:17:03;;;;;;;1.65;0.50;;;12.60;88.00;;;;;;5063275;28;20057;-62
2023/10/28 04:19:29;;;;;;;3.13;0.85;;;12.60;88.00;;;;;;5064481;28;20041;-62
2023/10/28 04:21:55;;;;;;;2.25;0.80;;;12.50;88.10;;;;;;5063536;28;20024;-62
2023/10/28 04:24:22;;;;;;;0.68;0.68;;;12.50;88.30;;;;;;5060378;28;20052;-62
2023/10/28 04:26:47;;;;;;;1.33;0.60;;;12.50;88.30;;;;;;5065901;28;20126;-62
2023/10/28 04:29:13;;;;;;;1.70;0.80;;;12.50;88.40;;;;;;5066481;28;20036;-62
2023/10/28 04:31:39;;;;;;;0.73;0.50;;;12.50;88.50;;;;;;5067733;28;20368;-62
2023/10/28 04:34:05;;;;;;;1.02;0.70;;;12.50;88.60;;;;;;5068839;28;20020;-62
2023/10/28 04:36:31;;;;;;;0.80;0.73;;;12.50;88.60;;;;;;5072582;28;20039;-62
2023/10/28 04:38:57;;;;;;;1.48;1.02;;;12.50;88.60;;;;;;5071797;28;20099;-62
2023/10/28 04:41:22;;;;;;;1.67;0.90;;;12.50;88.60;;;;;;5068980;28;20117;-62
2023/10/28 04:43:48;;;;;;;3.75;1.08;;;12.50;88.60;;;;;;5074440;28;20055;-65
2023/10/28 04:46:15;;;;;;;1.13;0.57;;;12.50;88.60;;;;;;5070244;28;20123;-66
2023/10/28 04:48:46;;;;;;;1.17;1.02;;;12.50;88.60;;;;;;5089707;28;20117;-65
2023/10/28 04:51:12;;;;;;;0.85;0.60;;;12.50;88.60;;;;;;5070570;28;20025;-65
2023/10/28 04:53:38;;;;;;;1.02;0.93;;;12.50;88.60;;;;;;5063888;28;20068;-65
2023/10/28 04:56:06;;;;;;;1.33;1.02;;;12.50;88.60;;;;;;5062005;28;20060;-65
2023/10/28 04:58:32;;;;;;;0.95;0.88;;;12.40;88.70;;;;;;5060766;28;20041;-62
2023/10/28 05:00:58;;;;;;;1.70;0.95;;;12.40;88.70;;;;;;5071457;28;20460;-63
2023/10/28 05:03:23;;;;;;;0.50;0.47;;;12.40;88.70;;;;;;5064466;28;20033;-62
2023/10/28 05:05:49;;;;;;;0.73;0.70;;;12.50;88.80;;;;;;5057098;28;20029;-62
2023/10/28 05:08:16;;;;;;;0.65;0.47;;;12.50;88.70;;;;;;5067767;28;20033;-65
2023/10/28 05:10:41;;;;;;;0.90;0.70;;;12.50;88.50;;;;;;5055205;28;20443;-65
2023/10/28 05:13:10;;;;;;;1.77;0.80;;;12.60;88.50;;;;;;5060339;28;20036;-65
2023/10/28 05:15:36;;;;;;;1.45;1.15;;;12.60;88.30;;;;;;5076528;28;20140;-65
2023/10/28 05:18:02;;;;;;;1.63;0.85;;;12.60;88.40;;;;;;5064266;28;20095;-65
2023/10/28 05:20:28;;;;;;;0.93;0.68;;;12.60;88.40;;;;;;5072454;28;20403;-65
2023/10/28 05:22:53;;;;;;;2.42;0.82;;;12.50;88.30;;;;;;5061369;28;20060;-65
2023/10/28 05:25:19;;;;;;;0.85;0.40;;;12.50;88.30;;;;;;5074388;28;20406;-65
2023/10/28 05:27:45;;;;;;;1.50;0.70;;;12.50;88.40;;;;;;5071420;28;20036;-66
2023/10/28 05:30:11;;;;;;;1.45;0.95;;;12.60;88.40;;;;;;5074583;28;20444;-62
2023/10/28 05:32:38;;;;;;;0.55;0.30;;;12.60;88.30;;;;;;5066076;28;20035;-62
2023/10/28 05:35:04;;;;;;;0.55;0.50;;;12.50;88.30;;;;;;5071562;28;20035;-62
2023/10/28 05:37:29;;;;;;;0.90;0.60;;;12.60;88.30;;;;;;5068305;28;20035;-62
2023/10/28 05:39:56;;;;;;;2.13;1.00;;;12.60;88.20;;;;;;5071253;28;20103;-62
2023/10/28 05:42:23;;;;;;;0.68;0.52;;;12.50;88.20;;;;;;5071772;28;20391;-62
2023/10/28 05:44:49;;;;;;;1.15;0.85;;;12.60;88.30;;;;;;5076875;28;20421;-62
2023/10/28 05:47:16;;;;;;;0.82;0.45;;;12.50;88.30;;;;;;5069848;28;20033;-62
2023/10/28 05:49:42;;;;;;;1.33;0.77;;;12.50;88.40;;;;;;5076114;28;20036;-62
2023/10/28 05:52:09;;;;;;;2.05;0.38;;;12.60;88.50;;;;;;5075594;28;20024;-62
2023/10/28 05:54:35;;;;;;;0.50;0.45;;;12.60;88.40;;;;;;5076285;28;20032;-62
2023/10/28 05:57:01;;;;;;;0.55;0.55;;;12.50;88.30;;;;;;5071295;28;20381;-62
2023/10/28 05:59:26;;;;;;;0.63;0.50;;;12.60;88.30;;;;;;5076451;28;20028;-62
2023/10/28 06:01:52;;;;;;;0.95;0.70;;;12.70;88.20;;;;;;5073976;28;20033;-62
2023/10/28 06:04:21;;;;;;;1.48;0.80;;;12.70;88.20;;;;;;5069216;28;20028;-62
2023/10/28 06:06:47;;;;;;;0.38;0.38;;;12.70;88.10;;;;;;5065543;28;20044;-62
2023/10/28 06:09:13;;;;;;;0.60;0.60;;;12.70;88.00;;;;;;5072763;28;20044;-62
2023/10/28 06:11:40;;;;;;;0.45;0.40;;;12.70;87.90;;;;;;5071390;28;20029;-62
2023/10/28 06:14:05;;;;;;;1.60;0.60;;;12.70;87.90;;;;;;5069243;28;20043;-62
2023/10/28 06:16:31;;;;;;;0.65;0.40;;;12.70;87.90;;;;;;5068516;28;20049;-62
2023/10/28 06:18:57;;;;;;;0.70;0.52;;;12.70;88.00;;;;;;5070061;28;20020;-62
2023/10/28 06:21:23;;;;;;;0.77;0.68;;;12.70;87.90;;;;;;5067769;28;20056;-62
2023/10/28 06:23:48;;;;;;;0.88;0.70;;;12.70;88.00;;;;;;5067286;28;20020;-62
2023/10/28 06:26:14;;;;;;;1.73;0.88;;;12.70;88.00;;;;;;5086864;28;20036;-62
2023/10/28 06:28:40;;;;;;;0.95;0.82;;;12.70;88.00;;;;;;5069308;28;20122;-65
2023/10/28 06:31:06;;;;;;;0.77;0.60;;;12.70;88.00;;;;;;5071839;28;20541;-65
2023/10/28 06:33:35;;;;;;;1.27;1.05;;;12.70;88.10;;;;;;5067135;28;20035;-66
2023/10/28 06:36:00;;;;;;;1.02;0.50;;;12.60;88.10;;;;;;5069849;28;20032;-65
2023/10/28 06:38:28;;;;;;;3.35;1.00;;;12.70;88.20;;;;;;5074032;28;20033;-66
2023/10/28 06:40:54;;;;;;;1.10;0.98;;;12.70;88.20;;;;;;5066795;28;20032;-65
2023/10/28 06:43:19;;;;;;;1.50;1.27;;;12.70;88.20;;;;;;5070906;28;20063;-66
2023/10/28 06:45:45;;;;;;;1.50;1.00;;;12.70;88.00;;;;;;5068215;28;20499;-65
2023/10/28 06:48:11;;;;;;;4.28;0.95;;;12.70;88.00;;;;;;5069446;28;20047;-66
2023/10/28 06:50:37;;;;;;;2.15;1.10;;;12.70;87.90;;;;;;5071082;28;20085;-66
2023/10/28 06:53:02;;;;;;;0.60;0.60;;;12.70;87.90;;;;;;5071099;28;20321;-66
2023/10/28 06:55:28;;;;;;;0.60;0.60;;;12.70;88.00;;;;;;5067627;28;20028;-65
2023/10/28 06:57:55;;;;;;;1.00;1.00;;;12.70;88.00;;;;;;5062014;28;20411;-65
2023/10/28 07:00:26;;;;;;;1.10;0.70;;;12.70;88.10;;;;;;5065492;28;20028;-65
2023/10/28 07:02:53;;;;;;;1.35;1.05;;;12.70;88.00;;;;;;5072020;28;20083;-65
2023/10/28 07:05:19;;;;;;;1.08;0.98;;;12.70;88.10;;;;;;5069247;28;20078;-65
2023/10/28 07:07:45;;;;;;;0.80;0.75;;;12.70;88.00;;;;;;5086242;28;20462;-65
2023/10/28 07:10:14;;;;;;;0.95;0.82;;;12.70;88.00;;;;;;5069010;28;20021;-66
2023/10/28 07:12:40;;;;;;;2.00;1.27;;;12.70;88.10;;;;;;5071609;28;20399;-65
2023/10/28 07:15:17;;;;;;;1.48;0.95;;;12.70;88.10;;;;;;5062098;28;20387;-66
2023/10/28 07:17:43;;;;;;;1.15;0.88;;;12.70;88.10;;;;;;5071960;28;20519;-62
2023/10/28 07:20:09;;;;;;;0.80;0.60;;;12.70;88.20;;;;;;5069970;28;20104;-63
2023/10/28 07:22:35;;;;;;;1.20;0.90;;;12.70;88.20;;;;;;5060708;28;20552;-62
2023/10/28 07:25:01;;;;;;;1.27;0.93;;;12.80;88.30;;;;;;5065769;28;20024;-62
2023/10/28 07:27:27;;;;;;;0.82;0.50;;;12.80;88.20;;;;;;5064090;28;20071;-62
2023/10/28 07:29:53;;;;;;;1.45;0.77;;;12.80;88.10;;;;;;5078737;28;20123;-60
2023/10/28 07:32:18;;;;;;;2.03;0.98;;;12.80;88.00;;;;;;5073347;28;20730;-61
2023/10/28 07:34:44;;;;;;;1.35;0.88;;;12.80;88.10;;;;;;5071978;28;20115;-62
2023/10/28 07:37:10;;;;;;;1.88;1.27;;;12.80;88.10;;;;;;5082012;28;20066;-62
2023/10/28 07:39:35;;;;;;;1.27;0.95;;;12.80;88.10;;;;;;5068326;28;20360;-63
2023/10/28 07:42:02;;;;;;;2.17;1.05;;;12.90;88.10;;;;;;5064292;28;20434;-62
2023/10/28 07:44:28;;;;;;;1.85;0.73;;;12.90;88.10;;;;;;5066987;28;20040;-62
2023/10/28 07:46:54;;;;;;;1.10;0.60;;;12.90;88.10;;;;;;5067389;28;20033;-61
2023/10/28 07:49:19;;;;;;;1.13;0.70;;;12.90;88.10;;;;;;5056368;28;20028;-62
2023/10/28 07:51:45;;;;;;;1.52;0.70;;;13.00;88.00;;;;;;5073076;28;20021;-64
2023/10/28 07:54:11;;;;;;;0.50;0.50;;;13.00;88.00;;;;;;5069417;28;20043;-65
2023/10/28 07:56:36;;;;;;;0.50;0.40;;;13.00;88.00;;;;;;5072647;28;20368;-65
2023/10/28 07:59:02;;;;;;;2.70;0.95;;;13.00;88.00;;;;;;5067920;28;20511;-65
2023/10/28 08:01:32;;;;;;;0.88;0.85;;;13.10;88.00;;;;;;5076314;28;20033;-63
2023/10/28 08:03:58;;;;;;;1.52;1.02;;;13.10;87.90;;;;;;5063320;28;20476;-64
2023/10/28 08:06:25;;;;;;;2.22;0.98;;;13.20;88.00;;;;;;5070664;28;20487;-66
2023/10/28 08:08:55;;;;;;;0.70;0.60;;;13.20;87.90;;;;;;5067701;28;20028;-64
2023/10/28 08:11:24;;;;;;;2.00;1.10;;;13.20;87.90;;;;;;5055431;28;20086;-66
2023/10/28 08:13:50;;;;;;;2.15;0.50;;;13.20;88.50;;;;;;5053397;28;20047;-65
2023/10/28 08:16:18;;;;;;;0.55;0.55;;;13.20;87.80;;;;;;5070944;28;20055;-64
2023/10/28 08:18:45;;;;;;;0.95;0.70;;;13.20;87.80;;;;;;5070090;28;20032;-65
2023/10/28 08:21:13;;;;;;;1.00;0.70;;;13.20;87.90;;;;;;5076238;28;20039;-64
2023/10/28 08:23:39;;;;;;;0.73;0.52;;;13.20;87.90;;;;;;5072187;28;20032;-64
2023/10/28 08:26:10;;;;;;;1.35;1.05;;;13.20;88.00;;;;;;5051611;28;20123;-64
2023/10/28 08:28:35;;;;;;;1.13;0.80;;;13.20;88.00;;;;;;5058848;28;20039;-65
2023/10/28 08:31:02;;;;;;;2.08;0.82;;;13.20;88.00;;;;;;5063276;28;20025;-62
2023/10/28 08:33:28;;;;;;;13.98;1.30;;;13.20;88.10;;;;;;5055652;28;20912;-62
2023/10/28 08:35:56;;;;;;;0.40;0.40;;;13.20;88.20;;;;;;5051536;28;21051;-63
2023/10/28 08:38:22;;;;;;;2.88;1.20;;;13.20;88.20;;;;;;5065215;28;20499;-62
2023/10/28 08:40:48;;;;;;;1.10;0.63;;;13.20;88.30;;;;;;5064038;28;20110;-62
2023/10/28 08:43:17;;;;;;;1.45;0.77;;;13.20;88.20;;;;;;5058953;28;20123;-65
2023/10/28 08:45:46;;;;;;;0.80;0.80;;;13.30;88.10;;;;;;5053733;28;20056;-62
2023/10/28 08:48:14;;;;;;;1.52;0.90;;;13.30;88.10;;;;;;5060775;28;20119;-63
2023/10/28 08:50:43;;;;;;;0.77;0.77;;;13.30;88.10;;;;;;5067722;28;20029;-62
2023/10/28 08:53:11;;;;;;;1.50;0.90;;;13.30;88.00;;;;;;5071945;28;20016;-62
2023/10/28 08:55:38;;;;;;;2.72;1.25;;;13.30;88.00;;;;;;5070851;28;20032;-62
2023/10/28 08:58:06;;;;;;;1.90;1.13;;;13.30;87.90;;;;;;5076797;28;20032;-62
2023/10/28 09:00:39;;;;;;;1.10;0.85;;;13.30;88.00;;;;;;5076757;28;20330;-62
2023/10/28 09:03:05;;;;;;;2.40;1.27;;;13.30;88.10;;;;;;5059283;28;20100;-65
2023/10/28 09:05:31;;;;;;;1.42;0.85;;;13.40;88.30;;;;;;5071993;28;20055;-65
2023/10/28 09:07:57;;;;;;;0.88;0.63;;;13.40;88.30;;;;;;5070479;28;20138;-64
2023/10/28 09:10:23;;;;;;;2.03;0.90;;;13.40;88.20;;;;;;5084852;28;20040;-65
2023/10/28 09:12:52;;;;;;;2.17;0.95;;;13.40;88.10;;;;;;5064562;28;20029;-64
2023/10/28 09:15:18;;;;;;;1.02;0.70;;;13.40;88.20;;;;;;5062039;28;20569;-65
2023/10/28 09:17:44;;;;;;;2.35;1.10;;;13.50;88.30;;;;;;5065390;28;20025;-65
2023/10/28 09:20:11;;;;;;;2.55;1.30;;;13.50;88.40;;;;;;5067042;28;20032;-63
2023/10/28 09:22:44;;;;;;;1.92;0.90;;;13.60;88.40;;;;;;5066899;28;20024;-62
2023/10/28 09:25:14;;;;;;;1.02;0.90;;;13.60;88.30;;;;;;5064987;28;20104;-63
2023/10/28 09:27:40;;;;;;;1.88;0.90;;;13.70;88.30;;;;;;5068591;28;20036;-63
2023/10/28 09:30:07;;;;;;;2.38;1.02;;;13.70;88.10;;;;;;5080391;28;20044;-62
2023/10/28 09:32:34;;;;;;;1.30;0.90;;;13.80;88.10;;;;;;5076336;28;20098;-62
2023/10/28 09:35:07;;;;;;;2.17;1.00;;;13.70;87.90;;;;;;5066731;28;20040;-63
2023/10/28 09:37:35;;;;;;;0.77;0.77;;;13.80;88.10;;;;;;5068081;28;20498;-63
2023/10/28 09:40:08;;;;;;;0.95;0.82;;;13.80;88.00;;;;;;5067375;28;20032;-62
2023/10/28 09:42:36;;;;;;;0.85;0.80;;;13.90;87.90;;;;;;5072357;28;20104;-63
2023/10/28 09:45:06;;;;;;;6.93;1.35;;;13.90;87.70;;;;;;5073563;28;20159;-63
2023/10/28 09:48:00;;;;;;;2.60;1.33;;;13.90;87.70;;;;;;5067625;28;20441;-65
2023/10/28 09:50:28;;;;;;;0.82;0.80;;;13.90;87.70;;;;;;5070237;28;20036;-65
2023/10/28 09:52:56;;;;;;;1.73;0.98;;;13.90;87.80;;;;;;5070982;28;20039;-65
2023/10/28 09:55:35;;;;;;;1.15;0.60;;;13.90;87.70;;;;;;5086638;28;20033;-65
2023/10/28 09:58:13;;;;;;;1.40;1.08;;;14.10;87.70;;;;;;5065379;28;20063;-65
2023/10/28 10:00:40;;;;;;;2.47;1.50;;;14.10;87.30;;;;;;5062928;28;20025;-63
2023/10/28 10:03:15;;;;;;;1.10;0.85;;;14.10;87.40;;;;;;5071371;28;20415;-63
2023/10/28 10:05:43;;;;;;;0.88;0.60;;;14.20;87.50;;;;;;5068634;28;20032;-63
2023/10/28 10:08:22;;;;;;;1.90;0.90;;;14.20;87.20;;;;;;5068570;28;20020;-62
2023/10/28 10:10:57;;;;;;;1.58;0.75;;;14.20;87.20;;;;;;5066319;28;20024;-65
2023/10/28 10:13:23;;;;;;;1.23;0.70;;;14.30;87.20;;;;;;5064960;28;20036;-66
2023/10/28 10:16:01;;;;;;;1.10;0.80;;;14.30;87.20;;;;;;5062318;28;20082;-65
2023/10/28 10:18:40;;;;;;;3.17;1.00;;;14.30;87.10;;;;;;5065809;28;20077;-66
2023/10/28 10:21:14;;;;;;;0.82;0.77;;;14.40;86.90;;;;;;5057269;28;20430;-63
2023/10/28 10:23:44;;;;;;;0.85;0.52;;;14.40;86.90;;;;;;5057398;28;20123;-63
2023/10/28 10:26:24;;;;;;;1.35;0.70;;;14.40;86.90;;;;;;5062087;28;20034;-63
2023/10/28 10:28:52;;;;;;;1.10;0.70;;;14.50;86.80;;;;;;5061583;28;20036;-63
2023/10/28 10:31:21;;;;;;;2.88;1.25;;;14.40;86.40;;;;;;5061349;28;20050;-63
2023/10/28 10:34:01;;;;;;;1.77;0.70;;;14.40;86.40;;;;;;5060287;28;20036;-63
2023/10/28 10:36:29;;;;;;;2.70;0.80;;;14.40;86.50;;;;;;5064348;28;20037;-63
2023/10/28 10:38:55;;;;;;;1.75;0.93;;;14.40;86.50;;;;;;5064182;28;20024;-62
2023/10/28 10:41:29;;;;;;;1.45;0.73;;;14.50;86.40;;;;;;5052158;28;20039;-63
2023/10/28 10:43:55;;;;;;;1.77;1.15;;;14.50;86.30;;;;;;5071691;28;20016;-63
2023/10/28 10:46:21;;;;;;;3.63;1.45;;;14.60;86.30;;;;;;5068590;28;20063;-63
2023/10/28 10:48:49;;;;;;;2.22;0.88;;;14.70;85.80;;;;;;5065116;28;20028;-63
2023/10/28 10:51:17;;;;;;;5.00;1.33;;;14.70;85.70;;;;;;5058255;28;21168;-63
2023/10/28 10:53:44;;;;;;;1.75;0.80;;;14.70;85.30;;;;;;5062846;28;20062;-63
2023/10/28 10:56:19;;;;;;;1.63;1.13;;;14.70;85.30;;;;;;5057390;28;20029;-63
2023/10/28 10:58:45;;;;;;;3.20;1.05;;;14.70;85.20;;;;;;5063648;28;20029;-63
2023/10/28 11:01:12;;;;;;;0.52;0.45;;;14.70;85.20;;;;;;5063326;28;20402;-63
2023/10/28 11:03:39;;;;;;;1.15;0.80;;;14.70;85.20;;;;;;5046993;28;20070;-63
2023/10/28 11:06:06;;;;;;;3.28;1.02;;;14.80;85.00;;;;;;5058607;28;20035;-63
2023/10/28 11:08:31;;;;;;;2.95;1.50;;;14.80;84.60;;;;;;5063001;28;20118;-63
2023/10/28 11:10:57;;;;;;;1.00;0.90;;;14.70;84.60;;;;;;5074768;28;20056;-63
2023/10/28 11:13:23;;;;;;;1.13;1.00;;;14.70;84.60;;;;;;5067907;28;20078;-66
2023/10/28 11:15:51;;;;;;;4.85;0.85;;;14.80;84.70;;;;;;5062862;28;20047;-66
2023/10/28 11:18:17;;;;;;;0.95;0.80;;;14.80;84.40;;;;;;5064303;28;20036;-66
2023/10/28 11:20:42;;;;;;;2.15;0.85;;;14.80;83.70;;;;;;5051953;28;20028;-66
2023/10/28 11:23:08;;;;;;;0.65;0.50;;;14.80;83.90;;;;;;5067141;28;20442;-66
2023/10/28 11:25:35;;;;;;;4.10;0.98;;;14.80;83.20;;;;;;5061136;28;20025;-63
2023/10/28 11:28:08;;;;;;;2.03;0.73;;;14.90;82.80;;;;;;5056465;28;20052;-62
2023/10/28 11:30:34;;;;;;;1.40;0.77;;;14.80;82.60;;;;;;5057262;28;20040;-63
2023/10/28 11:33:07;;;;;;;0.95;0.70;;;14.90;82.90;;;;;;5063714;28;20032;-62
2023/10/28 11:35:34;;;;;;;1.25;0.82;;;15.00;83.00;;;;;;5066261;28;20049;-63
2023/10/28 11:38:02;;;;;;;0.40;0.40;;;15.30;82.70;;;;;;5066716;28;20074;-63
2023/10/28 11:40:29;;;;;;;1.02;0.50;;;15.60;82.10;;;;;;5064982;28;20028;-63
2023/10/28 11:42:54;;;;;;;0.82;0.60;;;15.80;81.50;;;;;;5065656;28;20020;-63
2023/10/28 11:45:20;;;;;;;0.70;0.70;;;16.00;81.40;;;;;;5068280;28;20029;-63
2023/10/28 11:47:46;;;;;;;0.75;0.47;;;15.90;79.70;;;;;;5064875;28;20032;-63
2023/10/28 11:50:12;;;;;;;0.82;0.57;;;15.80;79.10;;;;;;5066342;28;20033;-63
2023/10/28 11:52:38;;;;;;;2.15;1.10;;;15.70;79.60;;;;;;5066423;28;20051;-63
2023/10/28 11:55:05;;;;;;;2.28;1.05;;;15.60;79.80;;;;;;5065127;28;20056;-62
2023/10/28 11:57:34;;;;;;;0.57;0.50;;;15.50;78.60;;;;;;5062897;28;20025;-62
2023/10/28 11:59:59;;;;;;;1.23;1.05;;;15.40;79.00;;;;;;5069936;28;20028;-62
2023/10/28 12:02:25;;;;;;;4.70;0.73;;;15.50;79.00;;;;;;5067346;28;20029;-63
2023/10/28 12:04:51;;;;;;;1.60;0.45;;;15.50;79.10;;;;;;5061152;28;20035;-63
2023/10/28 12:07:17;;;;;;;1.15;0.77;;;15.40;77.60;;;;;;5068875;28;20119;-62
2023/10/28 12:09:42;;;;;;;0.40;0.40;;;15.40;78.50;;;;;;5071135;28;20423;-63
2023/10/28 12:12:09;;;;;;;3.85;0.82;;;15.90;79.50;;;;;;5071432;28;20395;-63
2023/10/28 12:14:35;;;;;;;3.83;1.13;;;17.30;74.70;;;;;;5075965;28;20020;-63
2023/10/28 12:17:01;;;;;;;3.40;0.90;;;18.30;71.20;;;;;;5063041;28;20041;-63
2023/10/28 12:19:27;;;;;;;1.95;0.80;;;18.50;69.60;;;;;;5069606;28;20376;-62
2023/10/28 12:21:53;;;;;;;1.40;0.85;;;18.60;69.90;;;;;;5068025;28;20723;-63
2023/10/28 12:24:19;;;;;;;2.45;0.75;;;19.00;70.30;;;;;;5066445;28;20021;-63
2023/10/28 12:26:44;;;;;;;1.33;0.98;;;19.50;68.20;;;;;;5065604;28;20047;-63
2023/10/28 12:29:10;;;;;;;0.75;0.70;;;20.20;66.10;;;;;;5070620;28;20067;-63
2023/10/28 12:31:36;;;;;;;0.90;0.90;;;20.60;62.50;;;;;;5064579;28;20413;-63
2023/10/28 12:34:03;;;;;;;0.90;0.60;;;21.10;63.50;;;;;;5071935;28;20036;-63
2023/10/28 12:36:29;;;;;;;2.25;1.05;;;21.40;62.00;;;;;;5073929;28;20036;-63
2023/10/28 12:38:55;;;;;;;1.25;0.68;;;21.50;61.50;;;;;;5073111;28;20056;-63
2023/10/28 12:41:21;;;;;;;2.28;0.57;;;21.00;61.30;;;;;;5071729;28;20045;-63
2023/10/28 12:43:47;;;;;;;1.15;0.80;;;20.20;61.20;;;;;;5069284;28;20597;-63
2023/10/28 12:46:12;;;;;;;1.10;1.02;;;19.70;64.30;;;;;;5063900;28;20127;-63